createdAt,value
2018-03-02T00:01:30.985Z,22.20
2018-03-02T00:03:59.322Z,25.83
2018-03-02T00:06:26.886Z,29.50
2018-03-02T00:08:54.454Z,15.37
2018-03-02T00:11:22.288Z,15.97
2018-03-02T00:13:50.837Z,20.77
2018-03-02T00:16:18.465Z,22.23
2018-03-02T00:18:46.212Z,20.67
2018-03-02T00:21:14.984Z,30.33
2018-03-02T00:23:45.707Z,20.00
2018-03-02T00:26:14.446Z,22.43
2018-03-02T00:28:43.089Z,26.45
2018-03-02T00:31:10.697Z,27.03
2018-03-02T00:33:38.234Z,21.97
2018-03-02T00:36:05.802Z,20.85
2018-03-02T00:38:33.334Z,17.03
2018-03-02T00:41:00.881Z,21.13
2018-03-02T00:43:28.434Z,19.63
2018-03-02T00:45:56.215Z,13.13
2018-03-02T00:48:23.813Z,29.57
2018-03-02T00:50:52.480Z,23.47
2018-03-02T00:53:21.352Z,16.93
2018-03-02T00:55:49.438Z,20.43
2018-03-02T00:58:18.264Z,28.90
2018-03-02T01:00:46.803Z,27.70
2018-03-02T01:03:15.299Z,25.00
2018-03-02T01:05:43.760Z,25.40
2018-03-02T01:08:11.422Z,22.17
2018-03-02T01:10:39.027Z,26.77
2018-03-02T01:13:07.358Z,26.85
2018-03-02T01:15:34.903Z,31.20
2018-03-02T01:18:02.449Z,26.03
2018-03-02T01:20:30.007Z,37.78
2018-03-02T01:22:57.593Z,24.97
2018-03-02T01:25:25.376Z,29.27
2018-03-02T01:27:53.296Z,25.52
2018-03-02T01:30:21.209Z,31.02
2018-03-02T01:32:49.206Z,27.47
2018-03-02T01:35:18.338Z,25.20
2018-03-02T01:37:46.782Z,24.98
2018-03-02T01:40:15.567Z,28.90
2018-03-02T01:42:44.879Z,26.33
2018-03-02T01:45:13.528Z,29.40
2018-03-02T01:47:41.064Z,18.53
2018-03-02T01:50:08.612Z,29.80
2018-03-02T01:52:36.915Z,38.30
2018-03-02T01:55:04.465Z,31.97
2018-03-02T01:57:32.005Z,23.77
2018-03-02T02:00:00.321Z,24.23
2018-03-02T02:02:27.979Z,13.50
2018-03-02T02:04:57.018Z,26.77
2018-03-02T02:07:25.097Z,25.53
2018-03-02T02:09:52.916Z,21.05
2018-03-02T02:12:21.193Z,27.53
2018-03-02T02:14:50.290Z,32.45
2018-03-02T02:17:19.012Z,34.17
2018-03-02T02:19:48.559Z,19.80
2018-03-02T02:22:17.727Z,18.87
2018-03-02T02:24:46.157Z,20.93
2018-03-02T02:27:14.572Z,24.30
2018-03-02T02:29:42.718Z,25.03
2018-03-02T02:32:11.353Z,24.67
2018-03-02T02:34:39.800Z,21.40
2018-03-02T02:37:07.332Z,27.95
2018-03-02T02:39:34.860Z,33.43
2018-03-02T02:42:03.173Z,21.97
2018-03-02T02:44:30.722Z,29.90
2018-03-02T02:46:58.299Z,26.42
2018-03-02T02:49:26.132Z,31.10
2018-03-02T02:51:54.013Z,33.03
2018-03-02T02:54:22.004Z,25.12
2018-03-02T02:56:50.008Z,26.33
2018-03-02T02:59:18.559Z,24.87
2018-03-02T03:01:47.677Z,25.05
2018-03-02T03:04:16.565Z,26.53
2018-03-02T03:06:46.495Z,28.30
2018-03-02T03:09:15.497Z,20.70
2018-03-02T03:11:44.650Z,32.72
2018-03-02T03:14:13.336Z,22.70
2018-03-02T03:16:41.825Z,26.90
2018-03-02T03:19:09.405Z,34.15
2018-03-02T03:21:37.453Z,24.53
2018-03-02T03:24:05.334Z,26.37
2018-03-02T03:26:32.981Z,35.73
2018-03-02T03:29:00.502Z,30.50
2018-03-02T03:31:28.818Z,31.07
2018-03-02T03:33:56.386Z,34.87
2018-03-02T03:36:25.166Z,23.70
2018-03-02T03:38:53.136Z,23.73
2018-03-02T03:41:20.901Z,23.50
2018-03-02T03:43:49.020Z,31.95
2018-03-02T03:46:19.457Z,31.50
2018-03-02T03:48:48.525Z,32.17
2018-03-02T03:51:17.417Z,31.57
2018-03-02T03:53:46.689Z,26.60
2018-03-02T03:56:14.909Z,32.15
2018-03-02T03:58:44.982Z,22.55
2018-03-02T04:01:13.698Z,28.58
2018-03-02T04:03:41.337Z,32.50
2018-03-02T04:06:10.306Z,27.67
2018-03-02T04:08:37.900Z,26.05
2018-03-02T04:11:05.429Z,33.30
2018-03-02T04:13:33.109Z,34.20
2018-03-02T04:16:00.640Z,26.92
2018-03-02T04:18:28.169Z,31.80
2018-03-02T04:20:56.094Z,32.83
2018-03-02T04:23:24.062Z,34.50
2018-03-02T04:25:52.033Z,34.23
2018-03-02T04:28:19.876Z,34.47
2018-03-02T04:30:48.940Z,31.65
2018-03-02T04:33:16.776Z,34.70
2018-03-02T04:35:45.647Z,27.25
2018-03-02T04:38:14.867Z,31.17
2018-03-02T04:40:43.033Z,31.10
2018-03-02T04:43:12.022Z,30.10
2018-03-02T04:45:40.292Z,35.30
2018-03-02T04:48:07.806Z,26.95
2018-03-02T04:50:36.140Z,26.60
2018-03-02T04:53:03.672Z,27.02
2018-03-02T04:55:31.217Z,29.55
2018-03-02T04:57:59.536Z,30.65
2018-03-02T05:00:27.315Z,33.00
2018-03-02T05:02:55.724Z,37.13
2018-03-02T05:05:24.564Z,32.75
2018-03-02T05:07:53.457Z,28.30
2018-03-02T05:10:21.529Z,28.23
2018-03-02T05:12:50.477Z,40.25
2018-03-02T05:15:18.594Z,32.40
2018-03-02T05:17:47.794Z,26.95
2018-03-02T05:20:16.452Z,23.90
2018-03-02T05:22:45.330Z,36.05
2018-03-02T05:25:15.186Z,27.23
2018-03-02T05:27:43.925Z,33.42
2018-03-02T05:30:12.839Z,30.00
2018-03-02T05:32:40.428Z,33.92
2018-03-02T05:35:07.994Z,28.27
2018-03-02T05:37:41.157Z,29.60
2018-03-02T05:40:08.847Z,42.85
2018-03-02T05:42:36.394Z,24.52
2018-03-02T05:45:03.926Z,29.35
2018-03-02T05:47:31.490Z,30.40
2018-03-02T05:49:59.249Z,33.38
2018-03-02T05:52:27.770Z,32.58
2018-03-02T05:54:55.618Z,33.53
2018-03-02T05:57:23.357Z,27.02
2018-03-02T05:59:51.065Z,35.97
2018-03-02T06:02:18.853Z,29.58
2018-03-02T06:04:46.501Z,37.05
2018-03-02T06:07:14.887Z,25.65
2018-03-02T06:09:43.250Z,31.15
2018-03-02T06:12:10.793Z,27.10
2018-03-02T06:14:38.325Z,29.55
2018-03-02T06:17:06.747Z,28.92
2018-03-02T06:19:34.298Z,34.38
2018-03-02T06:22:01.897Z,35.22
2018-03-02T06:24:29.449Z,39.15
2018-03-02T06:26:56.985Z,39.90
2018-03-02T06:29:24.578Z,33.67
2018-03-02T06:31:52.858Z,36.30
2018-03-02T06:34:20.661Z,33.70
2018-03-02T06:36:49.905Z,29.15
2018-03-02T06:39:17.870Z,39.80
2018-03-02T06:41:47.475Z,28.42
2018-03-02T06:44:15.444Z,27.92
2018-03-02T06:46:43.689Z,31.17
2018-03-02T06:49:11.494Z,31.00
2018-03-02T06:51:39.086Z,29.70
2018-03-02T06:54:07.939Z,32.45
2018-03-02T06:56:35.568Z,29.92
2018-03-02T06:59:03.123Z,34.05
2018-03-02T07:01:31.439Z,33.38
2018-03-02T07:03:58.992Z,43.15
2018-03-02T07:06:26.550Z,30.98
2018-03-02T07:08:54.112Z,32.45
2018-03-02T07:11:21.665Z,43.90
2018-03-02T07:13:49.643Z,28.52
2018-03-02T07:16:17.715Z,35.35
2018-03-02T07:18:46.401Z,26.48
2018-03-02T07:21:15.317Z,26.27
2018-03-02T07:23:43.364Z,26.23
2018-03-02T07:26:11.148Z,29.55
2018-03-02T07:28:38.781Z,22.87
2018-03-02T07:31:06.556Z,27.40
2018-03-02T07:33:34.194Z,34.50
2018-03-02T07:36:01.737Z,27.60
2018-03-02T07:38:30.055Z,29.87
2018-03-02T07:40:57.589Z,34.70
2018-03-02T07:43:25.137Z,30.73
2018-03-02T07:45:53.567Z,25.92
2018-03-02T07:48:21.218Z,35.15
2018-03-02T07:50:48.893Z,33.58
2018-03-02T07:53:16.662Z,22.95
2018-03-02T07:55:45.331Z,31.08
2018-03-02T07:58:14.248Z,33.67
2018-03-02T08:00:42.000Z,28.75
2018-03-02T08:03:09.985Z,32.13
2018-03-02T08:05:37.843Z,26.85
2018-03-02T08:08:05.471Z,30.58
2018-03-02T08:10:33.009Z,40.22
2018-03-02T08:13:01.310Z,39.75
2018-03-02T08:15:28.929Z,32.58
2018-03-02T08:17:56.465Z,44.50
2018-03-02T08:20:24.076Z,33.92
2018-03-02T08:22:51.701Z,28.50
2018-03-02T08:25:19.425Z,28.05
2018-03-02T08:27:47.339Z,32.85
2018-03-02T08:30:16.051Z,27.65
2018-03-02T08:32:44.168Z,27.75
2018-03-02T08:35:11.970Z,35.60
2018-03-02T08:37:39.701Z,26.45
2018-03-02T08:40:07.669Z,33.65
2018-03-02T08:42:36.100Z,27.40
2018-03-02T08:45:03.674Z,24.42
2018-03-02T08:47:31.234Z,40.33
2018-03-02T08:49:58.922Z,34.57
2018-03-02T08:52:27.002Z,35.00
2018-03-02T08:54:54.571Z,34.43
2018-03-02T08:57:22.107Z,35.80
2018-03-02T08:59:50.448Z,32.40
2018-03-02T09:02:18.999Z,32.50
2018-03-02T09:04:46.664Z,16.43
2018-03-02T09:07:14.645Z,39.63
2018-03-02T09:09:42.909Z,31.40
2018-03-02T09:12:11.241Z,37.87
2018-03-02T09:14:38.804Z,26.00
2018-03-02T09:17:07.509Z,41.93
2018-03-02T09:19:35.125Z,30.87
2018-03-02T09:22:03.425Z,23.40
2018-03-02T09:24:31.330Z,26.33
2018-03-02T09:26:58.881Z,32.30
2018-03-02T09:29:26.400Z,35.77
2018-03-02T09:31:54.730Z,40.37
2018-03-02T09:34:22.789Z,43.20
2018-03-02T09:36:50.422Z,37.70
2018-03-02T09:39:18.212Z,28.30
2018-03-02T09:41:45.985Z,27.43
2018-03-02T09:44:14.527Z,33.03
2018-03-02T09:46:42.349Z,30.53
2018-03-02T09:49:11.109Z,41.17
2018-03-02T09:51:38.857Z,41.23
2018-03-02T09:54:06.645Z,38.93
2018-03-02T09:56:34.308Z,36.70
2018-03-02T09:59:01.853Z,29.67
2018-03-02T10:01:29.410Z,33.60
2018-03-02T10:03:56.943Z,34.43
2018-03-02T10:06:25.237Z,35.87
2018-03-02T10:08:53.625Z,30.10
2018-03-02T10:11:21.304Z,21.33
2018-03-02T10:13:49.226Z,32.33
2018-03-02T10:16:17.662Z,31.10
2018-03-02T10:18:45.408Z,24.00
2018-03-02T10:21:13.521Z,23.13
2018-03-02T10:23:41.079Z,30.17
2018-03-02T10:26:08.744Z,44.87
2018-03-02T10:28:36.467Z,36.30
2018-03-02T10:31:04.071Z,35.30
2018-03-02T10:33:32.406Z,22.17
2018-03-02T10:35:59.932Z,39.20
2018-03-02T10:38:27.760Z,28.23
2018-03-02T10:40:55.285Z,34.83
2018-03-02T10:43:22.966Z,34.83
2018-03-02T10:45:50.617Z,33.73
2018-03-02T10:48:18.211Z,33.10
2018-03-02T10:50:47.306Z,41.20
2018-03-02T10:53:15.189Z,35.00
2018-03-02T10:55:43.850Z,36.17
2018-03-02T10:58:13.037Z,26.67
2018-03-02T11:00:46.334Z,31.80
2018-03-02T11:03:19.953Z,43.60
2018-03-02T11:05:47.701Z,36.23
2018-03-02T11:08:15.516Z,33.07
2018-03-02T11:10:43.151Z,31.10
2018-03-02T11:13:10.720Z,30.30
2018-03-02T11:15:39.036Z,28.63
2018-03-02T11:18:06.777Z,40.07
2018-03-02T11:20:35.108Z,38.37
2018-03-02T11:23:02.874Z,29.70
2018-03-02T11:25:30.400Z,32.27
2018-03-02T11:27:58.721Z,29.87
2018-03-02T11:30:26.253Z,48.67
2018-03-02T11:32:53.849Z,28.03
2018-03-02T11:35:21.498Z,42.50
2018-03-02T11:37:49.179Z,36.30
2018-03-02T11:40:17.610Z,33.67
2018-03-02T11:42:45.810Z,42.43
2018-03-02T11:45:13.957Z,39.43
2018-03-02T11:47:42.195Z,32.93
2018-03-02T11:50:10.023Z,38.53
2018-03-02T11:52:37.810Z,33.33
2018-03-02T11:55:05.454Z,39.37
2018-03-02T11:57:32.992Z,26.87
2018-03-02T12:00:01.129Z,25.00
2018-03-02T12:02:28.656Z,36.20
2018-03-02T12:04:56.216Z,31.87
2018-03-02T12:07:23.770Z,40.50
2018-03-02T12:09:51.423Z,38.37
2018-03-02T12:12:19.424Z,35.60
2018-03-02T12:14:47.128Z,23.73
2018-03-02T12:17:14.705Z,41.13
2018-03-02T12:19:42.254Z,37.83
2018-03-02T12:22:10.636Z,38.23
2018-03-02T12:24:38.173Z,41.53
2018-03-02T12:27:05.724Z,36.50
2018-03-02T12:29:33.268Z,37.33
2018-03-02T12:32:00.782Z,37.10
2018-03-02T12:34:28.770Z,34.10
2018-03-02T12:36:56.385Z,31.93
2018-03-02T12:39:24.796Z,36.87
2018-03-02T12:41:52.780Z,31.20
2018-03-02T12:44:20.570Z,33.80
2018-03-02T12:46:48.265Z,31.60
2018-03-02T12:49:16.406Z,32.30
2018-03-02T12:51:44.035Z,30.27
2018-03-02T12:54:11.569Z,36.70
2018-03-02T12:56:39.889Z,30.63
2018-03-02T12:59:07.422Z,28.77
2018-03-02T13:01:34.944Z,40.53
2018-03-02T13:04:02.773Z,33.13
2018-03-02T13:06:30.487Z,31.73
2018-03-02T13:08:59.013Z,33.20
2018-03-02T13:11:26.829Z,30.40
2018-03-02T13:13:55.974Z,34.00
2018-03-02T13:16:24.081Z,32.37
2018-03-02T13:18:53.212Z,31.77
2018-03-02T13:21:21.523Z,34.20
2018-03-02T13:23:49.093Z,37.23
2018-03-02T13:26:29.646Z,27.07
2018-03-02T13:28:57.689Z,26.43
2018-03-02T13:31:25.301Z,34.77
2018-03-02T13:34:05.124Z,26.87
2018-03-02T13:36:32.779Z,33.73
2018-03-02T13:39:00.497Z,39.57
2018-03-02T13:41:40.199Z,40.03
2018-03-02T13:44:07.723Z,41.13
2018-03-02T13:46:36.010Z,33.97
2018-03-02T13:49:15.902Z,29.43
2018-03-02T13:51:43.486Z,30.03
2018-03-02T13:54:11.063Z,35.57
2018-03-02T13:56:51.567Z,37.43
2018-03-02T13:59:19.109Z,37.37
2018-03-02T14:01:46.745Z,29.67
2018-03-02T14:04:26.300Z,37.47
2018-03-02T14:06:54.768Z,32.90
2018-03-02T14:09:22.858Z,24.73
2018-03-02T14:11:51.397Z,34.70
2018-03-02T14:14:19.052Z,33.77
2018-03-02T14:16:47.100Z,35.53
2018-03-02T14:19:15.468Z,39.70
2018-03-02T14:21:43.021Z,39.27
2018-03-02T14:24:10.576Z,42.60
2018-03-02T14:26:38.980Z,35.83
2018-03-02T14:29:06.510Z,39.13
2018-03-02T14:31:34.805Z,40.63
2018-03-02T14:34:02.720Z,41.70
2018-03-02T14:36:30.290Z,34.33
2018-03-02T14:38:58.407Z,40.20
2018-03-02T14:41:26.458Z,38.97
2018-03-02T14:43:55.503Z,37.90
2018-03-02T14:46:23.558Z,42.57
2018-03-02T14:48:51.255Z,42.73
2018-03-02T14:51:18.998Z,45.10
2018-03-02T14:53:46.737Z,38.57
2018-03-02T14:56:14.411Z,39.40
2018-03-02T14:58:42.102Z,33.80
2018-03-02T15:01:09.657Z,44.77
2018-03-02T15:03:37.193Z,42.17
2018-03-02T15:06:04.714Z,36.30
2018-03-02T15:08:33.003Z,30.10
2018-03-02T15:11:00.764Z,45.93
2018-03-02T15:13:28.493Z,41.20
2018-03-02T15:15:56.204Z,38.97
2018-03-02T15:18:24.321Z,43.80
2018-03-02T15:20:52.265Z,46.47
2018-03-02T15:23:20.071Z,47.50
2018-03-02T15:25:48.512Z,41.53
2018-03-02T15:28:16.196Z,43.07
2018-03-02T15:30:44.047Z,41.90
2018-03-02T15:33:12.883Z,42.93
2018-03-02T15:35:41.181Z,38.03
2018-03-02T15:38:08.737Z,36.83
2018-03-02T15:40:37.049Z,47.00
2018-03-02T15:43:04.574Z,46.47
2018-03-02T15:45:33.017Z,43.50
2018-03-02T15:48:00.714Z,52.93
2018-03-02T15:50:29.355Z,39.33
2018-03-02T15:52:57.101Z,45.53
2018-03-02T15:55:24.966Z,40.23
2018-03-02T15:57:53.453Z,49.73
2018-03-02T16:00:21.114Z,44.13
2018-03-02T16:02:48.685Z,51.07
2018-03-02T16:05:16.333Z,55.10
2018-03-02T16:07:43.913Z,43.33
2018-03-02T16:10:11.448Z,52.57
2018-03-02T16:12:39.017Z,50.20
2018-03-02T16:15:06.548Z,54.80
2018-03-02T16:17:34.086Z,54.57
2018-03-02T16:20:01.649Z,54.97
2018-03-02T16:22:30.165Z,53.17
2018-03-02T16:24:57.799Z,47.37
2018-03-02T16:27:25.499Z,53.00
2018-03-02T16:29:53.264Z,50.27
2018-03-02T16:32:22.148Z,52.47
2018-03-02T16:34:50.069Z,52.80
2018-03-02T16:37:18.464Z,51.97
2018-03-02T16:39:46.093Z,45.30
2018-03-02T16:42:13.931Z,52.57
2018-03-02T16:44:42.514Z,58.27
2018-03-02T16:47:10.708Z,44.50
2018-03-02T16:49:38.233Z,49.70
2018-03-02T16:52:05.772Z,51.50
2018-03-02T16:54:33.363Z,55.20
2018-03-02T16:57:00.914Z,46.73
2018-03-02T16:59:28.547Z,65.67
2018-03-02T17:01:56.974Z,41.93
2018-03-02T17:04:24.911Z,39.97
2018-03-02T17:06:52.815Z,49.97
2018-03-02T17:09:20.516Z,48.70
2018-03-02T17:11:48.159Z,60.83
2018-03-02T17:14:15.887Z,55.60
2018-03-02T17:16:44.247Z,43.77
2018-03-02T17:19:11.802Z,54.87
2018-03-02T17:21:40.093Z,58.67
2018-03-02T17:24:07.640Z,50.87
2018-03-02T17:26:35.936Z,53.87
2018-03-02T17:29:03.493Z,49.97
2018-03-02T17:31:31.037Z,53.27
2018-03-02T17:33:59.723Z,52.97
2018-03-02T17:36:28.313Z,46.00
2018-03-02T17:38:56.520Z,42.17
2018-03-02T17:41:24.258Z,62.17
2018-03-02T17:43:52.076Z,64.77
2018-03-02T17:46:20.765Z,51.00
2018-03-02T17:48:48.400Z,58.07
2018-03-02T17:51:15.972Z,51.73
2018-03-02T17:53:43.648Z,52.10
2018-03-02T17:56:12.001Z,64.87
2018-03-02T17:58:39.537Z,65.50
2018-03-02T18:01:07.074Z,68.23
2018-03-02T18:03:34.641Z,62.30
2018-03-02T18:06:02.961Z,57.60
2018-03-02T18:08:30.520Z,50.03
2018-03-02T18:10:58.566Z,66.67
2018-03-02T18:13:26.354Z,62.80
2018-03-02T18:15:55.844Z,47.20
2018-03-02T18:18:24.494Z,54.27
2018-03-02T18:20:52.908Z,61.33
2018-03-02T18:23:21.100Z,59.77
2018-03-02T18:25:50.201Z,49.37
2018-03-02T18:28:18.043Z,64.23
2018-03-02T18:30:46.773Z,65.50
2018-03-02T18:33:15.421Z,66.93
2018-03-02T18:35:43.019Z,65.27
2018-03-02T18:38:10.580Z,68.07
2018-03-02T18:40:38.220Z,48.67
2018-03-02T18:43:07.022Z,72.27
2018-03-02T18:45:34.730Z,65.00
2018-03-02T18:48:03.073Z,71.40
2018-03-02T18:50:32.665Z,73.80
2018-03-02T18:53:01.345Z,59.50
2018-03-02T18:55:29.311Z,67.57
2018-03-02T18:57:57.364Z,65.13
2018-03-02T19:00:26.106Z,61.40
2018-03-02T19:02:53.910Z,69.73
2018-03-02T19:05:22.068Z,75.17
2018-03-02T19:07:49.878Z,65.80
2018-03-02T19:10:18.162Z,45.83
2018-03-02T19:12:46.506Z,63.03
2018-03-02T19:15:14.871Z,72.00
2018-03-02T19:17:43.177Z,57.73
2018-03-02T19:20:10.733Z,66.30
2018-03-02T19:22:38.329Z,73.40
2018-03-02T19:25:05.865Z,64.20
2018-03-02T19:27:33.414Z,65.47
2018-03-02T19:30:01.017Z,85.20
2018-03-02T19:32:28.869Z,72.57
2018-03-02T19:34:56.754Z,77.70
2018-03-02T19:37:25.637Z,65.50
2018-03-02T19:39:53.832Z,76.20
2018-03-02T19:42:22.531Z,71.03
2018-03-02T19:44:50.559Z,68.10
2018-03-02T19:47:18.118Z,79.77
2018-03-02T19:49:45.645Z,74.50
2018-03-02T19:52:14.032Z,58.77
2018-03-02T19:54:41.561Z,75.83
2018-03-02T19:57:09.171Z,86.17
2018-03-02T19:59:36.739Z,68.83
2018-03-02T20:02:04.521Z,62.57
2018-03-02T20:04:32.274Z,82.90
2018-03-02T20:07:00.343Z,70.13
2018-03-02T20:09:27.998Z,86.13
2018-03-02T20:11:56.070Z,74.57
2018-03-02T20:14:24.041Z,76.97
2018-03-02T20:16:52.053Z,85.33
2018-03-02T20:19:21.031Z,68.13
2018-03-02T20:21:48.617Z,58.47
2018-03-02T20:24:16.952Z,78.23
2018-03-02T20:26:44.486Z,77.70
2018-03-02T20:29:12.039Z,80.33
2018-03-02T20:31:39.595Z,68.67
2018-03-02T20:34:07.899Z,95.87
2018-03-02T20:36:35.472Z,84.67
2018-03-02T20:39:03.163Z,60.43
2018-03-02T20:41:31.705Z,82.50
2018-03-02T20:43:59.478Z,63.50
2018-03-02T20:46:27.343Z,87.77
2018-03-02T20:48:55.650Z,92.30
2018-03-02T20:51:24.334Z,76.93
2018-03-02T20:53:52.307Z,80.77
2018-03-02T20:56:21.573Z,87.00
2018-03-02T20:58:50.074Z,75.03
2018-03-02T21:01:18.630Z,74.23
2018-03-02T21:03:46.171Z,85.77
2018-03-02T21:06:13.754Z,99.20
2018-03-02T21:08:41.306Z,105.20
2018-03-02T21:11:08.863Z,104.30
2018-03-02T21:13:36.746Z,87.00
2018-03-02T21:16:04.919Z,98.70
2018-03-02T21:18:33.426Z,94.60
2018-03-02T21:21:01.575Z,58.27
2018-03-02T21:23:29.340Z,98.90
2018-03-02T21:25:57.240Z,103.23
2018-03-02T21:28:25.586Z,95.13
2018-03-02T21:30:54.384Z,85.43
2018-03-02T21:33:22.428Z,80.23
2018-03-02T21:35:51.050Z,102.10
2018-03-02T21:38:18.598Z,107.30
2018-03-02T21:40:46.141Z,102.77
2018-03-02T21:43:13.664Z,93.03
2018-03-02T21:45:41.522Z,100.10
2018-03-02T21:48:09.825Z,100.60
2018-03-02T21:50:38.135Z,93.93
2018-03-02T21:53:05.692Z,87.73
2018-03-02T21:55:33.336Z,107.27
2018-03-02T21:58:01.426Z,117.37
2018-03-02T22:00:29.397Z,104.67
2018-03-02T22:02:57.263Z,111.53
2018-03-02T22:05:26.257Z,102.80
2018-03-02T22:07:56.388Z,104.97
2018-03-02T22:10:25.080Z,113.87
2018-03-02T22:12:53.906Z,98.57
2018-03-02T22:15:22.233Z,68.20
2018-03-02T22:17:51.022Z,84.00
2018-03-02T22:20:18.643Z,95.17
2018-03-02T22:22:47.063Z,106.27
2018-03-02T22:25:14.584Z,95.67
2018-03-02T22:27:42.901Z,88.13
2018-03-02T22:30:10.428Z,92.63
2018-03-02T22:32:37.968Z,112.90
2018-03-02T22:35:05.709Z,79.47
2018-03-02T22:37:33.445Z,109.90
2018-03-02T22:40:01.138Z,108.63
2018-03-02T22:42:30.823Z,106.50
2018-03-02T22:44:58.575Z,103.63
2018-03-02T22:47:27.373Z,106.43
2018-03-02T22:49:55.756Z,64.60
2018-03-02T22:52:25.052Z,95.67
2018-03-02T22:54:52.920Z,112.27
2018-03-02T22:57:21.300Z,108.53
2018-03-02T22:59:48.874Z,113.87
2018-03-02T23:02:16.427Z,113.73
2018-03-02T23:04:43.966Z,92.33
2018-03-02T23:07:11.516Z,97.73
2018-03-02T23:09:39.071Z,111.10
2018-03-02T23:12:07.396Z,112.90
2018-03-02T23:14:34.926Z,69.40
2018-03-02T23:17:02.517Z,104.17
2018-03-02T23:19:30.279Z,106.27
2018-03-02T23:21:58.334Z,89.53
2018-03-02T23:24:26.152Z,100.80
2018-03-02T23:26:54.668Z,107.57
2018-03-02T23:29:22.888Z,66.20
2018-03-02T23:31:50.713Z,113.47
2018-03-02T23:34:18.270Z,107.57
2018-03-02T23:36:45.793Z,86.10
2018-03-02T23:39:13.350Z,66.10
2018-03-02T23:41:41.272Z,100.27
2018-03-02T23:44:08.814Z,116.10
2018-03-02T23:46:36.339Z,105.03
2018-03-02T23:49:03.969Z,99.37
2018-03-02T23:51:31.697Z,104.57
2018-03-02T23:53:59.834Z,99.77
2018-03-02T23:56:27.580Z,77.50
2018-03-02T23:58:55.531Z,87.40
